createdAt,value
2023-01-20T00:01:21.381Z,62.57
2023-01-20T00:03:48.206Z,62.57
2023-01-20T00:06:14.866Z,62.22
2023-01-20T00:08:41.804Z,62.06
2023-01-20T00:11:10.956Z,62.64
2023-01-20T00:13:38.512Z,62.35
2023-01-20T00:16:07.340Z,63.10
2023-01-20T00:18:35.054Z,62.63
2023-01-20T00:21:06.450Z,63.29
2023-01-20T00:23:33.621Z,62.58
2023-01-20T00:26:07.206Z,62.54
2023-01-20T00:28:35.323Z,61.93
2023-01-20T00:31:18.372Z,62.60
2023-01-20T00:33:46.681Z,62.02
2023-01-20T00:36:15.233Z,61.86
2023-01-20T00:38:42.558Z,61.57
2023-01-20T00:41:10.000Z,62.04
2023-01-20T00:43:37.232Z,62.40
2023-01-20T00:46:05.141Z,62.50
2023-01-20T00:48:31.900Z,62.24
2023-01-20T00:50:58.800Z,62.60
2023-01-20T00:53:25.728Z,62.59
2023-01-20T00:55:52.307Z,62.55
2023-01-20T00:58:18.998Z,62.49
2023-01-20T01:00:50.611Z,62.33
2023-01-20T01:03:17.497Z,63.60
2023-01-20T01:05:45.374Z,63.32
2023-01-20T01:08:12.452Z,63.23
2023-01-20T01:10:40.270Z,63.30
2023-01-20T01:13:07.815Z,64.28
2023-01-20T01:15:34.675Z,63.87
2023-01-20T01:18:01.836Z,63.83
2023-01-20T01:20:29.176Z,63.54
2023-01-20T01:22:55.900Z,63.24
2023-01-20T01:25:22.745Z,63.21
2023-01-20T01:27:49.381Z,63.72
2023-01-20T01:30:16.034Z,63.26
2023-01-20T01:32:42.694Z,63.21
2023-01-20T01:35:09.466Z,63.68
2023-01-20T01:37:36.171Z,63.20
2023-01-20T01:40:03.143Z,62.83
2023-01-20T01:42:29.977Z,62.43
2023-01-20T01:45:12.363Z,62.19
2023-01-20T01:47:54.658Z,62.57
2023-01-20T01:50:30.927Z,62.02
2023-01-20T01:52:57.798Z,62.48
2023-01-20T01:55:29.299Z,62.60
2023-01-20T01:57:58.298Z,62.33
2023-01-20T02:00:25.044Z,62.53
2023-01-20T02:02:52.132Z,62.52
2023-01-20T02:05:19.900Z,62.47
2023-01-20T02:07:48.012Z,62.80
2023-01-20T02:10:15.321Z,62.66
2023-01-20T02:12:43.684Z,62.84
2023-01-20T02:15:10.731Z,62.95
2023-01-20T02:17:57.512Z,63.63
2023-01-20T02:20:29.909Z,63.11
2023-01-20T02:23:16.913Z,63.69
2023-01-20T02:25:46.250Z,63.25
2023-01-20T02:28:12.841Z,62.62
2023-01-20T02:30:54.828Z,63.06
2023-01-20T02:33:33.145Z,63.43
2023-01-20T02:36:08.631Z,62.67
2023-01-20T02:39:04.395Z,62.56
2023-01-20T02:41:33.964Z,62.11
2023-01-20T02:44:06.900Z,62.59
2023-01-20T02:46:39.292Z,63.20
2023-01-20T02:49:15.627Z,62.97
2023-01-20T02:51:49.450Z,62.93
2023-01-20T02:54:18.797Z,62.69
2023-01-20T02:56:48.178Z,62.67
2023-01-20T02:59:20.848Z,62.39
2023-01-20T03:01:56.043Z,62.81
2023-01-20T03:04:27.977Z,62.29
2023-01-20T03:06:57.509Z,62.03
2023-01-20T03:09:30.438Z,62.73
2023-01-20T03:12:03.971Z,62.06
2023-01-20T03:14:30.889Z,62.32
2023-01-20T03:16:57.513Z,62.79
2023-01-20T03:19:24.444Z,62.91
2023-01-20T03:21:51.057Z,63.20
2023-01-20T03:24:17.841Z,62.56
2023-01-20T03:26:44.626Z,62.31
2023-01-20T03:29:11.733Z,62.28
2023-01-20T03:31:52.197Z,62.08
2023-01-20T03:34:22.257Z,62.32
2023-01-20T03:36:49.974Z,61.94
2023-01-20T03:39:17.505Z,62.44
2023-01-20T03:42:11.841Z,62.19
2023-01-20T03:44:57.238Z,62.10
2023-01-20T03:47:41.181Z,62.61
2023-01-20T03:50:25.789Z,62.67
2023-01-20T03:53:07.400Z,62.04
2023-01-20T03:55:42.045Z,62.29
2023-01-20T03:58:12.694Z,63.11
2023-01-20T04:00:47.942Z,63.11
2023-01-20T04:03:30.268Z,62.92
2023-01-20T04:06:00.625Z,63.03
2023-01-20T04:08:33.248Z,62.76
2023-01-20T04:11:03.782Z,63.22
2023-01-20T04:13:30.458Z,63.05
2023-01-20T04:15:59.385Z,62.49
2023-01-20T04:18:26.231Z,63.48
2023-01-20T04:21:02.409Z,63.16
2023-01-20T04:23:44.078Z,63.23
2023-01-20T04:26:10.896Z,63.00
2023-01-20T04:28:37.498Z,63.34
2023-01-20T04:31:04.310Z,62.19
2023-01-20T04:33:31.000Z,62.39
2023-01-20T04:35:57.613Z,62.67
2023-01-20T04:38:24.241Z,62.40
2023-01-20T04:40:51.575Z,63.23
2023-01-20T04:43:18.465Z,62.70
2023-01-20T04:45:45.113Z,62.43
2023-01-20T04:48:11.786Z,62.72
2023-01-20T04:50:41.373Z,62.70
2023-01-20T04:53:13.753Z,62.95
2023-01-20T04:55:40.418Z,63.21
2023-01-20T04:58:07.012Z,63.49
2023-01-20T05:00:33.816Z,63.69
2023-01-20T05:03:00.649Z,62.87
2023-01-20T05:05:27.381Z,63.20
2023-01-20T05:07:54.995Z,63.21
2023-01-20T05:10:21.638Z,62.71
2023-01-20T05:12:48.244Z,63.56
2023-01-20T05:15:15.196Z,63.17
2023-01-20T05:17:42.019Z,63.93
2023-01-20T05:20:09.509Z,63.46
2023-01-20T05:22:36.167Z,63.76
2023-01-20T05:25:02.919Z,63.85
2023-01-20T05:27:29.620Z,64.16
2023-01-20T05:29:56.295Z,63.44
2023-01-20T05:32:22.952Z,63.76
2023-01-20T05:34:49.658Z,62.47
2023-01-20T05:37:19.153Z,62.63
2023-01-20T05:39:45.897Z,62.57
2023-01-20T05:42:12.697Z,62.77
2023-01-20T05:44:39.372Z,62.81
2023-01-20T05:47:06.073Z,63.54
2023-01-20T05:49:32.846Z,62.79
2023-01-20T05:51:59.489Z,63.50
2023-01-20T05:54:26.273Z,63.28
2023-01-20T05:56:52.945Z,63.74
2023-01-20T05:59:19.595Z,63.00
2023-01-20T06:01:46.424Z,63.29
2023-01-20T06:04:13.065Z,63.23
2023-01-20T06:06:39.711Z,63.25
2023-01-20T06:09:06.753Z,63.50
2023-01-20T06:11:33.494Z,62.99
2023-01-20T06:14:00.183Z,63.08
2023-01-20T06:16:26.910Z,63.15
2023-01-20T06:18:53.741Z,62.79
2023-01-20T06:21:20.457Z,62.65
2023-01-20T06:23:47.261Z,62.64
2023-01-20T06:26:14.709Z,62.78
2023-01-20T06:28:41.439Z,63.29
2023-01-20T06:31:17.349Z,63.48
2023-01-20T06:33:44.129Z,63.38
2023-01-20T06:36:17.446Z,63.47
2023-01-20T06:38:48.478Z,62.44
2023-01-20T06:41:15.427Z,62.42
2023-01-20T06:43:42.346Z,63.17
2023-01-20T06:46:14.500Z,63.37
2023-01-20T06:48:42.235Z,63.99
2023-01-20T06:51:18.226Z,63.64
2023-01-20T06:53:45.552Z,63.99
2023-01-20T06:56:13.741Z,63.92
2023-01-20T06:58:40.713Z,64.51
2023-01-20T07:01:15.984Z,64.08
2023-01-20T07:03:45.760Z,64.19
2023-01-20T07:06:15.126Z,64.46
2023-01-20T07:08:43.868Z,64.00
2023-01-20T07:11:10.777Z,64.18
2023-01-20T07:13:37.595Z,64.87
2023-01-20T07:16:04.743Z,64.09
2023-01-20T07:18:31.435Z,64.52
2023-01-20T07:20:58.099Z,64.48
2023-01-20T07:23:24.739Z,64.43
2023-01-20T07:26:09.174Z,64.75
2023-01-20T07:28:37.171Z,64.62
2023-01-20T07:31:09.698Z,65.15
2023-01-20T07:33:36.788Z,65.58
2023-01-20T07:36:04.962Z,65.63
2023-01-20T07:38:31.556Z,65.02
2023-01-20T07:41:06.063Z,64.37
2023-01-20T07:43:33.268Z,63.97
2023-01-20T07:46:02.125Z,65.13
2023-01-20T07:48:31.269Z,65.06
2023-01-20T07:51:05.259Z,64.83
2023-01-20T07:53:46.490Z,64.60
2023-01-20T07:56:21.211Z,64.44
2023-01-20T07:58:50.419Z,63.84
2023-01-20T08:01:20.575Z,63.78
2023-01-20T08:03:47.897Z,63.71
2023-01-20T08:06:17.518Z,63.44
2023-01-20T08:08:44.643Z,63.04
2023-01-20T08:11:13.739Z,63.52
2023-01-20T08:13:40.758Z,62.85
2023-01-20T08:16:09.607Z,63.88
2023-01-20T08:18:36.509Z,63.28
2023-01-20T08:21:06.545Z,63.90
2023-01-20T08:23:34.296Z,64.08
2023-01-20T08:26:04.667Z,63.74
2023-01-20T08:28:35.210Z,63.25
2023-01-20T08:31:12.215Z,63.36
2023-01-20T08:33:39.934Z,63.40
2023-01-20T08:36:17.522Z,63.27
2023-01-20T08:38:45.038Z,63.20
2023-01-20T08:41:18.483Z,62.69
2023-01-20T08:43:45.550Z,63.25
2023-01-20T08:46:14.999Z,62.71
2023-01-20T08:48:42.685Z,62.57
2023-01-20T08:51:16.731Z,63.33
2023-01-20T08:53:43.771Z,63.43
2023-01-20T08:56:11.283Z,62.47
2023-01-20T08:58:38.643Z,62.24
2023-01-20T09:01:14.335Z,62.00
2023-01-20T09:03:42.063Z,61.37
2023-01-20T09:06:12.676Z,60.88
2023-01-20T09:08:39.759Z,60.66
2023-01-20T09:11:11.766Z,60.28
2023-01-20T09:13:38.485Z,60.90
2023-01-20T09:16:05.552Z,61.12
2023-01-20T09:18:34.604Z,61.10
2023-01-20T09:21:02.726Z,60.61
2023-01-20T09:23:29.332Z,59.98
2023-01-20T09:25:59.642Z,59.89
2023-01-20T09:28:26.539Z,59.65
2023-01-20T09:31:04.774Z,59.77
2023-01-20T09:33:32.758Z,58.99
2023-01-20T09:36:00.141Z,58.74
2023-01-20T09:38:45.895Z,58.77
2023-01-20T09:41:44.031Z,59.74
2023-01-20T09:44:41.905Z,58.59
2023-01-20T09:47:22.533Z,59.69
2023-01-20T09:50:36.037Z,59.35
2023-01-20T09:53:22.861Z,60.26
2023-01-20T09:55:53.289Z,59.90
2023-01-20T09:58:32.071Z,60.61
2023-01-20T10:01:31.139Z,60.25
2023-01-20T10:04:14.421Z,59.50
2023-01-20T10:06:56.865Z,58.51
2023-01-20T10:09:35.683Z,58.17
2023-01-20T10:12:18.345Z,58.12
2023-01-20T10:14:50.757Z,57.89
2023-01-20T10:17:39.985Z,57.55
2023-01-20T10:20:22.928Z,55.50
2023-01-20T10:23:01.034Z,54.92
2023-01-20T10:25:36.462Z,55.36
2023-01-20T10:28:12.021Z,55.64
2023-01-20T10:30:39.012Z,52.17
2023-01-20T10:33:22.008Z,47.92
2023-01-20T10:35:53.365Z,46.80
2023-01-20T10:38:38.635Z,48.76
2023-01-20T10:41:31.983Z,49.13
2023-01-20T10:43:59.843Z,51.05
2023-01-20T10:46:46.186Z,52.52
2023-01-20T10:50:01.071Z,54.58
2023-01-20T10:52:55.613Z,56.06
2023-01-20T10:55:29.755Z,56.61
2023-01-20T10:58:08.945Z,56.92
2023-01-20T11:00:35.762Z,55.83
2023-01-20T11:03:06.130Z,57.69
2023-01-20T11:05:41.491Z,57.78
2023-01-20T11:08:19.265Z,57.64
2023-01-20T11:10:49.239Z,56.00
2023-01-20T11:13:17.279Z,55.64
2023-01-20T11:15:49.834Z,55.51
2023-01-20T11:18:16.530Z,56.68
2023-01-20T11:20:49.260Z,56.81
2023-01-20T11:23:23.797Z,56.66
2023-01-20T11:25:56.956Z,57.20
2023-01-20T11:28:24.968Z,56.34
2023-01-20T11:30:54.922Z,54.79
2023-01-20T11:33:26.282Z,55.36
2023-01-20T11:36:01.637Z,55.37
2023-01-20T11:38:31.246Z,55.72
2023-01-20T11:40:58.693Z,54.97
2023-01-20T11:43:30.615Z,54.69
2023-01-20T11:46:10.800Z,55.00
2023-01-20T11:48:37.605Z,55.19
2023-01-20T11:51:05.000Z,55.20
2023-01-20T11:53:33.522Z,56.13
2023-01-20T11:56:02.045Z,56.04
2023-01-20T11:58:33.162Z,56.62
2023-01-20T12:01:05.904Z,55.65
2023-01-20T12:03:50.894Z,55.67
2023-01-20T12:06:21.116Z,55.76
2023-01-20T12:08:55.527Z,55.24
2023-01-20T12:11:33.723Z,55.17
2023-01-20T12:14:24.890Z,55.97
2023-01-20T12:17:19.109Z,57.09
2023-01-20T12:20:05.198Z,56.61
2023-01-20T12:22:57.379Z,55.62
2023-01-20T12:25:29.510Z,55.17
2023-01-20T12:28:10.037Z,55.76
2023-01-20T12:30:56.968Z,55.38
2023-01-20T12:33:33.229Z,54.89
2023-01-20T12:36:11.639Z,55.65
2023-01-20T12:39:23.774Z,54.98
2023-01-20T12:42:18.204Z,55.38
2023-01-20T12:44:56.465Z,55.82
2023-01-20T12:47:47.818Z,54.51
2023-01-20T12:50:18.080Z,54.70
2023-01-20T12:52:57.116Z,54.93
2023-01-20T12:55:35.702Z,54.67
2023-01-20T12:58:29.668Z,55.16
2023-01-20T13:01:16.750Z,55.95
2023-01-20T13:03:56.183Z,56.06
2023-01-20T13:07:04.330Z,56.63
2023-01-20T13:10:03.443Z,57.10
2023-01-20T13:12:57.778Z,57.78
2023-01-20T13:15:28.950Z,60.34
2023-01-20T13:18:21.799Z,62.57
2023-01-20T13:20:48.957Z,62.73
2023-01-20T13:23:20.711Z,62.34
2023-01-20T13:25:47.568Z,63.68
2023-01-20T13:28:17.511Z,63.66
2023-01-20T13:30:51.267Z,65.01
2023-01-20T13:33:31.553Z,65.04
2023-01-20T13:36:21.277Z,65.63
2023-01-20T13:39:12.041Z,64.55
2023-01-20T13:41:52.593Z,64.95
2023-01-20T13:44:36.858Z,63.74
2023-01-20T13:47:07.976Z,63.81
2023-01-20T13:49:43.747Z,64.59
2023-01-20T13:52:11.854Z,63.78
2023-01-20T13:54:46.555Z,63.38
2023-01-20T13:57:20.238Z,63.33
2023-01-20T13:59:47.042Z,62.73
2023-01-20T14:02:28.472Z,63.25
2023-01-20T14:04:55.711Z,62.27
2023-01-20T14:07:30.963Z,64.09
2023-01-20T14:09:59.375Z,64.04
2023-01-20T14:12:26.856Z,64.52
2023-01-20T14:14:55.073Z,64.19
2023-01-20T14:17:24.200Z,64.21
2023-01-20T14:19:54.309Z,63.96
2023-01-20T14:22:30.170Z,62.70
2023-01-20T14:25:00.088Z,62.97
2023-01-20T14:27:35.278Z,63.18
2023-01-20T14:30:25.679Z,63.61
2023-01-20T14:32:53.503Z,62.43
2023-01-20T14:35:31.700Z,62.32
2023-01-20T14:37:59.156Z,62.23
2023-01-20T14:40:30.929Z,62.12
2023-01-20T14:43:18.133Z,62.30
2023-01-20T14:45:48.222Z,62.85
2023-01-20T14:48:32.395Z,62.94
2023-01-20T14:51:02.546Z,63.06
2023-01-20T14:53:29.414Z,62.92
2023-01-20T14:56:01.209Z,63.13
2023-01-20T14:58:31.276Z,63.96
2023-01-20T15:01:04.308Z,63.39
2023-01-20T15:03:31.672Z,63.29
2023-01-20T15:06:10.395Z,63.98
2023-01-20T15:08:37.354Z,64.09
2023-01-20T15:11:20.514Z,65.50
2023-01-20T15:13:53.297Z,64.95
2023-01-20T15:16:28.510Z,64.84
2023-01-20T15:19:13.606Z,65.18
2023-01-20T15:21:45.886Z,65.40
2023-01-20T15:24:20.373Z,66.13
2023-01-20T15:26:49.580Z,65.87
2023-01-20T15:29:20.651Z,66.52
2023-01-20T15:31:48.403Z,66.68
2023-01-20T15:34:15.164Z,66.28
2023-01-20T15:36:43.210Z,66.53
2023-01-20T15:39:12.064Z,66.29
2023-01-20T15:41:39.018Z,65.56
2023-01-20T15:44:06.029Z,66.24
2023-01-20T15:46:33.546Z,65.83
2023-01-20T15:49:00.614Z,66.21
2023-01-20T15:51:27.308Z,67.38
2023-01-20T15:53:53.933Z,67.17
2023-01-20T15:56:23.860Z,67.17
2023-01-20T15:58:51.122Z,67.39
2023-01-20T16:01:21.065Z,67.20
2023-01-20T16:03:47.948Z,68.04
2023-01-20T16:06:16.951Z,67.77
2023-01-20T16:08:46.311Z,68.32
2023-01-20T16:11:14.213Z,68.87
2023-01-20T16:13:41.531Z,68.48
2023-01-20T16:16:16.681Z,68.76
2023-01-20T16:18:44.015Z,68.55
2023-01-20T16:21:16.123Z,69.31
2023-01-20T16:23:43.822Z,69.45
2023-01-20T16:26:24.665Z,68.96
2023-01-20T16:28:54.027Z,69.32
2023-01-20T16:31:21.792Z,69.27
2023-01-20T16:33:48.683Z,69.31
2023-01-20T16:36:17.589Z,69.62
2023-01-20T16:38:45.326Z,69.63
2023-01-20T16:41:25.372Z,69.61
2023-01-20T16:43:54.104Z,69.36
2023-01-20T16:46:26.033Z,69.28
2023-01-20T16:48:54.538Z,68.71
2023-01-20T16:51:23.183Z,69.09
2023-01-20T16:53:49.867Z,68.33
2023-01-20T16:56:25.320Z,68.68
2023-01-20T16:58:53.693Z,68.09
2023-01-20T17:01:24.454Z,69.01
2023-01-20T17:03:53.245Z,68.45
2023-01-20T17:06:22.283Z,68.62
2023-01-20T17:08:51.461Z,68.66
2023-01-20T17:11:22.014Z,68.43
2023-01-20T17:13:48.940Z,69.25
2023-01-20T17:16:16.382Z,68.23
2023-01-20T17:18:45.635Z,69.64
2023-01-20T17:21:13.731Z,69.65
2023-01-20T17:23:41.030Z,69.28
2023-01-20T17:26:09.407Z,68.38
2023-01-20T17:28:36.084Z,69.07
2023-01-20T17:31:04.790Z,67.83
2023-01-20T17:33:31.619Z,67.85
2023-01-20T17:36:04.083Z,67.63
2023-01-20T17:38:33.275Z,67.97
2023-01-20T17:41:04.713Z,69.13
2023-01-20T17:43:43.264Z,68.59
2023-01-20T17:46:17.704Z,68.12
2023-01-20T17:48:45.325Z,68.47
2023-01-20T17:51:16.928Z,68.58
2023-01-20T17:53:44.289Z,69.12
2023-01-20T17:56:13.606Z,69.57
2023-01-20T17:58:42.150Z,69.41
2023-01-20T18:01:16.954Z,69.55
2023-01-20T18:03:44.445Z,69.17
2023-01-20T18:06:13.609Z,69.83
2023-01-20T18:08:40.979Z,69.17
2023-01-20T18:11:16.292Z,70.53
2023-01-20T18:13:45.339Z,70.33
2023-01-20T18:16:13.683Z,70.28
2023-01-20T18:18:43.257Z,71.21
2023-01-20T18:21:18.470Z,71.53
2023-01-20T18:23:46.273Z,71.65
2023-01-20T18:26:14.942Z,72.10
2023-01-20T18:28:42.611Z,72.14
2023-01-20T18:31:12.687Z,71.80
2023-01-20T18:33:44.463Z,72.80
2023-01-20T18:36:14.973Z,71.32
2023-01-20T18:38:45.236Z,71.69
2023-01-20T18:41:13.631Z,71.70
2023-01-20T18:43:41.019Z,71.15
2023-01-20T18:46:08.896Z,71.82
2023-01-20T18:48:40.599Z,71.62
2023-01-20T18:51:10.490Z,71.09
2023-01-20T18:53:37.616Z,71.66
2023-01-20T18:56:07.313Z,71.80
2023-01-20T18:58:35.328Z,72.02
2023-01-20T19:01:14.126Z,71.12
2023-01-20T19:03:41.161Z,71.55
2023-01-20T19:06:11.225Z,71.66
2023-01-20T19:08:39.052Z,72.75
2023-01-20T19:11:08.879Z,72.46
2023-01-20T19:13:36.126Z,71.68
2023-01-20T19:16:02.929Z,71.62
2023-01-20T19:18:29.682Z,71.82
2023-01-20T19:20:56.372Z,71.36
2023-01-20T19:23:23.038Z,71.94
2023-01-20T19:25:59.593Z,71.68
2023-01-20T19:28:26.240Z,71.80
2023-01-20T19:30:53.065Z,71.37
2023-01-20T19:33:19.744Z,71.08
2023-01-20T19:35:46.431Z,70.99
2023-01-20T19:38:13.423Z,71.34
2023-01-20T19:40:40.172Z,71.06
2023-01-20T19:43:06.797Z,71.50
2023-01-20T19:45:45.438Z,70.59
2023-01-20T19:48:12.855Z,71.51
2023-01-20T19:50:39.798Z,70.69
2023-01-20T19:53:06.470Z,70.62
2023-01-20T19:55:33.121Z,70.63
2023-01-20T19:57:59.755Z,70.56
2023-01-20T20:00:26.380Z,70.57
2023-01-20T20:02:54.413Z,71.46
2023-01-20T20:05:21.122Z,71.63
2023-01-20T20:07:47.768Z,71.12
2023-01-20T20:10:17.586Z,71.02
2023-01-20T20:12:44.356Z,71.38
2023-01-20T20:15:11.181Z,71.66
2023-01-20T20:17:38.013Z,71.05
2023-01-20T20:20:05.367Z,71.10
2023-01-20T20:22:32.081Z,70.96
2023-01-20T20:24:58.732Z,69.83
2023-01-20T20:27:25.470Z,70.08
2023-01-20T20:29:54.485Z,70.20
2023-01-20T20:32:21.097Z,70.69
2023-01-20T20:34:47.741Z,70.25
2023-01-20T20:37:14.407Z,70.60
2023-01-20T20:39:41.118Z,70.13
2023-01-20T20:42:07.805Z,70.13
2023-01-20T20:44:34.771Z,70.23
2023-01-20T20:47:01.612Z,70.43
2023-01-20T20:49:28.581Z,69.79
2023-01-20T20:51:55.230Z,70.37
2023-01-20T20:54:22.121Z,69.93
2023-01-20T20:56:48.761Z,70.21
2023-01-20T20:59:15.422Z,70.53
2023-01-20T21:01:42.112Z,70.50
2023-01-20T21:04:08.897Z,70.29
2023-01-20T21:06:35.597Z,70.26
2023-01-20T21:09:02.284Z,69.58
2023-01-20T21:11:29.284Z,70.43
2023-01-20T21:13:56.327Z,70.69
2023-01-20T21:16:24.854Z,70.55
2023-01-20T21:18:53.639Z,71.84
2023-01-20T21:21:20.951Z,71.27
2023-01-20T21:23:55.781Z,70.81
2023-01-20T21:26:24.654Z,71.06
2023-01-20T21:28:51.577Z,71.20
2023-01-20T21:31:21.373Z,70.62
2023-01-20T21:33:53.540Z,70.97
2023-01-20T21:36:21.402Z,70.92
2023-01-20T21:38:48.334Z,70.92
2023-01-20T21:41:16.382Z,70.38
2023-01-20T21:44:04.246Z,70.79
2023-01-20T21:46:35.875Z,70.46
2023-01-20T21:49:23.097Z,70.28
2023-01-20T21:52:08.536Z,70.16
2023-01-20T21:54:35.302Z,69.16
2023-01-20T21:57:02.308Z,70.23
2023-01-20T21:59:28.970Z,69.80
2023-01-20T22:01:55.656Z,69.97
2023-01-20T22:04:22.310Z,69.34
2023-01-20T22:06:49.188Z,69.46
2023-01-20T22:09:15.798Z,69.77
2023-01-20T22:11:42.509Z,70.07
2023-01-20T22:14:10.038Z,70.13
2023-01-20T22:16:36.739Z,70.19
2023-01-20T22:19:03.424Z,69.96
2023-01-20T22:21:30.071Z,70.31
2023-01-20T22:23:56.754Z,70.28
2023-01-20T22:26:23.447Z,70.23
2023-01-20T22:28:50.197Z,69.84
2023-01-20T22:31:21.703Z,70.10
2023-01-20T22:33:56.013Z,70.65
2023-01-20T22:36:23.691Z,70.67
2023-01-20T22:38:51.742Z,70.66
2023-01-20T22:41:19.241Z,70.88
2023-01-20T22:43:47.959Z,70.91
2023-01-20T22:46:16.345Z,70.92
2023-01-20T22:48:43.444Z,70.55
2023-01-20T22:51:15.664Z,70.39
2023-01-20T22:53:43.380Z,70.16
2023-01-20T22:56:13.701Z,69.74
2023-01-20T22:58:40.788Z,70.31
2023-01-20T23:01:19.261Z,70.13
2023-01-20T23:03:47.011Z,70.14
2023-01-20T23:06:14.485Z,69.66
2023-01-20T23:08:41.647Z,69.47
2023-01-20T23:11:11.452Z,69.74
2023-01-20T23:13:41.275Z,69.56
2023-01-20T23:16:12.674Z,69.48
2023-01-20T23:18:39.327Z,69.61
2023-01-20T23:21:06.397Z,69.28
2023-01-20T23:23:33.173Z,69.51
2023-01-20T23:26:05.165Z,69.69
2023-01-20T23:28:32.476Z,69.27
2023-01-20T23:31:01.474Z,69.20
2023-01-20T23:33:28.359Z,69.64
2023-01-20T23:35:55.068Z,69.47
2023-01-20T23:38:21.750Z,69.36
2023-01-20T23:40:49.241Z,69.75
2023-01-20T23:43:15.910Z,69.70
2023-01-20T23:45:42.697Z,69.54
2023-01-20T23:48:09.364Z,69.64
2023-01-20T23:50:36.035Z,69.37
2023-01-20T23:53:02.696Z,69.50
2023-01-20T23:55:29.371Z,69.26
2023-01-20T23:57:56.329Z,69.69
